createdAt,value
2022-10-25T00:00:13.774Z,98741.31
2022-10-25T00:05:35.674Z,98733.38
2022-10-25T00:10:57.375Z,98730.38
2022-10-25T00:16:22.397Z,98741.94
2022-10-25T00:21:44.146Z,98739.75
2022-10-25T00:27:05.932Z,98732.94
2022-10-25T00:32:28.052Z,98738.03
2022-10-25T00:37:50.288Z,98728.22
2022-10-25T00:43:28.282Z,98730.28
2022-10-25T00:49:10.654Z,98734.78
2022-10-25T00:54:37.485Z,98736.00
2022-10-25T01:00:01.344Z,98733.56
2022-10-25T01:05:23.521Z,98726.53
2022-10-25T01:10:45.552Z,98733.81
2022-10-25T01:16:18.453Z,98738.78
2022-10-25T01:21:44.197Z,98720.63
2022-10-25T01:27:38.784Z,98720.63
2022-10-25T01:33:16.418Z,98726.91
2022-10-25T01:38:50.419Z,98719.88
2022-10-25T01:44:30.688Z,98724.28
2022-10-25T01:50:00.625Z,98729.38
2022-10-25T01:55:30.327Z,98734.16
2022-10-25T02:00:56.358Z,98734.78
2022-10-25T02:06:33.299Z,98738.38
2022-10-25T02:11:58.039Z,98741.72
2022-10-25T02:17:25.133Z,98745.72
2022-10-25T02:22:48.525Z,98736.41
2022-10-25T02:28:12.759Z,98739.84
2022-10-25T02:33:34.483Z,98739.31
2022-10-25T02:38:57.376Z,98737.63
2022-10-25T02:44:19.039Z,98729.94
2022-10-25T02:49:40.748Z,98726.53
2022-10-25T02:55:02.601Z,98724.00
2022-10-25T03:00:24.365Z,98726.00
2022-10-25T03:05:46.119Z,98718.13
2022-10-25T03:11:08.863Z,98709.84
2022-10-25T03:16:30.550Z,98705.66
2022-10-25T03:21:52.222Z,98727.13
2022-10-25T03:27:13.972Z,98731.06
2022-10-25T03:32:36.212Z,98739.50
2022-10-25T03:37:57.895Z,98739.41
2022-10-25T03:43:19.662Z,98737.06
2022-10-25T03:48:41.390Z,98735.66
2022-10-25T03:54:03.173Z,98736.31
2022-10-25T03:59:25.293Z,98748.59
2022-10-25T04:04:46.956Z,98745.44
2022-10-25T04:10:08.986Z,98746.81
2022-10-25T04:15:30.729Z,98748.47
2022-10-25T04:20:52.385Z,98744.84
2022-10-25T04:26:20.337Z,98750.91
2022-10-25T04:31:42.015Z,98744.56
2022-10-25T04:37:03.776Z,98750.53
2022-10-25T04:42:25.488Z,98755.75
2022-10-25T04:47:47.250Z,98759.13
2022-10-25T04:53:09.182Z,98753.16
2022-10-25T04:58:31.640Z,98751.47
2022-10-25T05:03:53.447Z,98748.00
2022-10-25T05:09:15.124Z,98753.72
2022-10-25T05:14:36.936Z,98760.94
2022-10-25T05:19:58.690Z,98767.41
2022-10-25T05:25:21.235Z,98767.13
2022-10-25T05:30:43.997Z,98775.72
2022-10-25T05:36:05.875Z,98777.97
2022-10-25T05:41:30.681Z,98779.81
2022-10-25T05:46:55.714Z,98776.38
2022-10-25T05:52:17.397Z,98782.00
2022-10-25T05:57:39.062Z,98785.28
2022-10-25T06:03:01.843Z,98789.84
2022-10-25T06:08:23.669Z,98780.88
2022-10-25T06:13:45.931Z,98796.72
2022-10-25T06:19:08.091Z,98792.09
2022-10-25T06:24:29.772Z,98795.84
2022-10-25T06:29:51.466Z,98809.34
2022-10-25T06:35:13.270Z,98836.06
2022-10-25T06:40:35.512Z,98837.53
2022-10-25T06:45:57.475Z,98850.28
2022-10-25T06:51:19.580Z,98852.81
2022-10-25T06:56:41.380Z,98863.38
2022-10-25T07:02:03.185Z,98868.53
2022-10-25T07:07:24.969Z,98876.97
2022-10-25T07:12:46.664Z,98876.69
2022-10-25T07:18:08.361Z,98878.84
2022-10-25T07:23:30.939Z,98877.44
2022-10-25T07:28:54.353Z,98883.16
2022-10-25T07:34:16.108Z,98879.84
2022-10-25T07:39:37.786Z,98894.19
2022-10-25T07:44:59.475Z,98894.31
2022-10-25T07:50:21.210Z,98889.81
2022-10-25T07:55:42.907Z,98894.66
2022-10-25T08:01:06.938Z,98887.66
2022-10-25T08:06:28.743Z,98895.28
2022-10-25T08:11:50.411Z,98891.25
2022-10-25T08:17:12.304Z,98885.72
2022-10-25T08:22:33.963Z,98882.31
2022-10-25T08:27:55.685Z,98880.13
2022-10-25T08:33:17.421Z,98875.94
2022-10-25T08:38:39.135Z,98879.50
2022-10-25T08:44:16.060Z,98885.06
2022-10-25T08:49:56.746Z,98887.38
2022-10-25T08:55:41.621Z,98880.03
2022-10-25T09:01:22.481Z,98875.13
2022-10-25T09:07:00.528Z,98877.03
2022-10-25T09:12:28.320Z,98879.41
2022-10-25T09:17:52.396Z,98893.47
2022-10-25T09:23:31.749Z,98892.97
2022-10-25T09:29:22.467Z,98895.06
2022-10-25T09:34:44.960Z,98885.59
2022-10-25T09:40:12.303Z,98884.34
2022-10-25T09:45:37.290Z,98887.94
2022-10-25T09:51:39.212Z,98879.53
2022-10-25T09:57:00.979Z,98887.59
2022-10-25T10:02:25.512Z,98886.44
2022-10-25T10:07:49.823Z,98885.72
2022-10-25T10:13:17.392Z,98891.38
2022-10-25T10:18:40.136Z,98891.31
2022-10-25T10:24:05.530Z,98884.91
2022-10-25T10:29:30.477Z,98882.28
2022-10-25T10:34:57.570Z,98874.69
2022-10-25T10:40:19.183Z,98875.91
2022-10-25T10:45:49.850Z,98868.19
2022-10-25T10:51:42.929Z,98854.00
2022-10-25T10:57:06.439Z,98846.59
2022-10-25T11:02:39.962Z,98843.91
2022-10-25T11:08:07.581Z,98844.00
2022-10-25T11:13:29.355Z,98837.94
2022-10-25T11:19:08.608Z,98836.63
2022-10-25T11:24:39.509Z,98824.66
2022-10-25T11:30:18.795Z,98817.81
2022-10-25T11:36:03.826Z,98818.81
2022-10-25T11:41:40.771Z,98825.69
2022-10-25T11:47:24.475Z,98820.91
2022-10-25T11:52:56.858Z,98820.44
2022-10-25T11:58:24.955Z,98820.44
2022-10-25T12:04:25.450Z,98818.22
2022-10-25T12:09:53.073Z,98808.63
2022-10-25T12:15:40.939Z,98809.16
2022-10-25T12:21:04.271Z,98816.09
2022-10-25T12:26:33.335Z,98807.50
2022-10-25T12:32:01.775Z,98816.97
2022-10-25T12:37:37.366Z,98810.00
2022-10-25T12:43:16.174Z,98811.91
2022-10-25T12:49:01.311Z,98811.84
2022-10-25T12:54:28.963Z,98810.75
2022-10-25T13:00:09.815Z,98798.41
2022-10-25T13:05:49.925Z,98793.63
2022-10-25T13:11:12.555Z,98793.84
2022-10-25T13:16:34.293Z,98787.72
2022-10-25T13:21:55.902Z,98796.50
2022-10-25T13:27:29.502Z,98809.22
2022-10-25T13:33:16.143Z,98806.81
2022-10-25T13:38:39.986Z,98799.63
2022-10-25T13:44:04.873Z,98796.88
2022-10-25T13:49:36.296Z,98789.88
2022-10-25T13:54:58.951Z,98788.94
2022-10-25T14:00:23.672Z,98792.41
2022-10-25T14:05:54.808Z,98783.66
2022-10-25T14:11:21.630Z,98778.75
2022-10-25T14:17:01.943Z,98784.97
2022-10-25T14:22:35.464Z,98779.84
2022-10-25T14:28:14.624Z,98772.16
2022-10-25T14:33:42.917Z,98770.47
2022-10-25T14:39:17.568Z,98766.16
2022-10-25T14:44:46.674Z,98768.56
2022-10-25T14:50:14.998Z,98769.50
2022-10-25T14:55:37.898Z,98756.44
2022-10-25T15:01:04.800Z,98753.66
2022-10-25T15:06:31.601Z,98757.53
2022-10-25T15:12:11.743Z,98756.81
2022-10-25T15:17:34.647Z,98757.03
2022-10-25T15:23:15.162Z,98748.31
2022-10-25T15:28:55.209Z,98748.56
2022-10-25T15:34:17.509Z,98738.84
2022-10-25T15:39:39.838Z,98745.47
2022-10-25T15:45:04.411Z,98736.72
2022-10-25T15:50:26.580Z,98735.53
2022-10-25T15:55:49.764Z,98739.25
2022-10-25T16:01:11.965Z,98742.34
2022-10-25T16:06:33.936Z,98745.56
2022-10-25T16:11:55.639Z,98742.69
2022-10-25T16:17:17.435Z,98741.59
2022-10-25T16:22:39.132Z,98743.38
2022-10-25T16:28:01.405Z,98743.72
2022-10-25T16:33:23.165Z,98727.66
2022-10-25T16:38:44.810Z,98741.19
2022-10-25T16:44:06.606Z,98737.69
2022-10-25T16:49:28.283Z,98728.22
2022-10-25T16:54:49.985Z,98727.72
2022-10-25T17:00:12.796Z,98742.66
2022-10-25T17:05:34.777Z,98735.09
2022-10-25T17:10:56.437Z,98734.66
2022-10-25T17:16:18.115Z,98733.78
2022-10-25T17:21:39.983Z,98724.94
2022-10-25T17:27:02.101Z,98723.72
2022-10-25T17:32:23.969Z,98724.53
2022-10-25T17:37:47.125Z,98726.38
2022-10-25T17:43:09.219Z,98729.91
2022-10-25T17:48:31.567Z,98729.72
2022-10-25T17:53:57.675Z,98714.59
2022-10-25T17:59:19.365Z,98726.59
2022-10-25T18:04:53.824Z,98731.31
2022-10-25T18:10:23.041Z,98728.09
2022-10-25T18:15:49.278Z,98735.31
2022-10-25T18:21:13.839Z,98726.06
2022-10-25T18:26:35.703Z,98729.53
2022-10-25T18:31:57.397Z,98735.84
2022-10-25T18:37:19.188Z,98741.00
2022-10-25T18:42:41.141Z,98742.81
2022-10-25T18:48:02.830Z,98735.69
2022-10-25T18:53:24.667Z,98733.75
2022-10-25T18:58:46.652Z,98721.97
2022-10-25T19:04:08.360Z,98717.78
2022-10-25T19:09:30.196Z,98707.44
2022-10-25T19:14:51.946Z,98710.84
2022-10-25T19:20:13.786Z,98713.56
2022-10-25T19:25:36.316Z,98701.47
2022-10-25T19:31:04.654Z,98705.06
2022-10-25T19:36:26.619Z,98704.97
2022-10-25T19:41:50.289Z,98715.47
2022-10-25T19:47:12.144Z,98703.53
2022-10-25T19:52:35.508Z,98711.41
2022-10-25T19:57:57.387Z,98706.22
2022-10-25T20:03:19.154Z,98692.91
2022-10-25T20:08:41.716Z,98688.38
2022-10-25T20:14:04.492Z,98679.34
2022-10-25T20:19:26.293Z,98684.56
2022-10-25T20:24:48.001Z,98688.78
2022-10-25T20:30:09.778Z,98688.38
2022-10-25T20:35:35.510Z,98676.41
2022-10-25T20:41:18.085Z,98674.53
2022-10-25T20:46:40.184Z,98679.88
2022-10-25T20:52:01.961Z,98670.06
2022-10-25T20:57:23.722Z,98670.94
2022-10-25T21:02:45.443Z,98664.63
2022-10-25T21:08:07.374Z,98667.88
2022-10-25T21:13:31.478Z,98658.72
2022-10-25T21:18:53.184Z,98661.03
2022-10-25T21:24:14.845Z,98658.50
2022-10-25T21:29:36.815Z,98669.94
2022-10-25T21:34:58.591Z,98655.56
2022-10-25T21:40:20.272Z,98653.69
2022-10-25T21:45:42.103Z,98659.16
2022-10-25T21:51:04.005Z,98655.78
2022-10-25T21:56:31.202Z,98622.16
2022-10-25T22:01:53.506Z,98621.75
2022-10-25T22:07:15.297Z,98600.31
2022-10-25T22:12:36.962Z,98625.94
2022-10-25T22:17:58.632Z,98639.50
2022-10-25T22:23:20.308Z,98641.69
2022-10-25T22:28:42.660Z,98638.75
2022-10-25T22:34:06.532Z,98639.50
2022-10-25T22:39:28.279Z,98630.16
2022-10-25T22:44:49.977Z,98619.44
2022-10-25T22:50:11.684Z,98621.25
2022-10-25T22:55:33.353Z,98626.69
2022-10-25T23:06:34.803Z,98598.19
2022-10-25T23:11:56.466Z,98602.41
2022-10-25T23:17:18.180Z,98603.78
2022-10-25T23:22:39.864Z,98605.34
2022-10-25T23:28:01.514Z,98608.72
2022-10-25T23:33:23.174Z,98616.28
2022-10-25T23:38:46.251Z,98610.59
2022-10-25T23:44:07.935Z,98605.13
2022-10-25T23:49:29.603Z,98600.31
2022-10-25T23:54:52.484Z,98595.25
